sensor_id;sensor_type;location;lat;lon;timestamp;P1;durP1;ratioP1;P2;durP2;ratioP2
9208;SDS011;4639;48.862;9.188;2022-08-05T00:00:33;10.77;;;4.57;;
9208;SDS011;4639;48.862;9.188;2022-08-05T00:02:58;6.75;;;4.57;;
9208;SDS011;4639;48.862;9.188;2022-08-05T00:05:24;7.88;;;4.85;;
9208;SDS011;4639;48.862;9.188;2022-08-05T00:07:50;7.40;;;4.55;;
9208;SDS011;4639;48.862;9.188;2022-08-05T00:10:15;7.43;;;4.60;;
9208;SDS011;4639;48.862;9.188;2022-08-05T00:12:41;8.10;;;5.00;;
9208;SDS011;4639;48.862;9.188;2022-08-05T00:15:07;5.35;;;4.65;;
9208;SDS011;4639;48.862;9.188;2022-08-05T00:17:33;5.15;;;4.53;;
9208;SDS011;4639;48.862;9.188;2022-08-05T00:19:59;5.20;;;4.05;;
9208;SDS011;4639;48.862;9.188;2022-08-05T00:22:24;6.65;;;4.28;;
9208;SDS011;4639;48.862;9.188;2022-08-05T00:24:50;6.30;;;4.15;;
9208;SDS011;4639;48.862;9.188;2022-08-05T00:27:16;4.90;;;4.35;;
9208;SDS011;4639;48.862;9.188;2022-08-05T00:29:41;7.05;;;3.95;;
9208;SDS011;4639;48.862;9.188;2022-08-05T00:32:07;6.07;;;3.67;;
9208;SDS011;4639;48.862;9.188;2022-08-05T00:34:36;7.35;;;4.25;;
9208;SDS011;4639;48.862;9.188;2022-08-05T00:37:03;6.72;;;4.05;;
9208;SDS011;4639;48.862;9.188;2022-08-05T00:39:28;8.10;;;4.20;;
9208;SDS011;4639;48.862;9.188;2022-08-05T00:41:54;6.30;;;4.30;;
9208;SDS011;4639;48.862;9.188;2022-08-05T00:44:19;6.88;;;4.18;;
9208;SDS011;4639;48.862;9.188;2022-08-05T00:46:45;5.15;;;3.80;;
9208;SDS011;4639;48.862;9.188;2022-08-05T00:49:10;4.65;;;3.50;;
9208;SDS011;4639;48.862;9.188;2022-08-05T00:51:36;6.40;;;3.00;;
9208;SDS011;4639;48.862;9.188;2022-08-05T00:54:02;5.38;;;3.25;;
9208;SDS011;4639;48.862;9.188;2022-08-05T00:56:27;5.60;;;3.03;;
9208;SDS011;4639;48.862;9.188;2022-08-05T00:58:53;3.80;;;2.63;;
9208;SDS011;4639;48.862;9.188;2022-08-05T01:01:19;6.63;;;2.50;;
9208;SDS011;4639;48.862;9.188;2022-08-05T01:03:44;3.50;;;2.00;;
9208;SDS011;4639;48.862;9.188;2022-08-05T01:06:10;4.30;;;2.47;;
9208;SDS011;4639;48.862;9.188;2022-08-05T01:08:36;6.05;;;2.40;;
9208;SDS011;4639;48.862;9.188;2022-08-05T01:11:18;8.13;;;2.28;;
9208;SDS011;4639;48.862;9.188;2022-08-05T01:19:18;5.88;;;2.38;;
9208;SDS011;4639;48.862;9.188;2022-08-05T01:30:04;3.95;;;2.47;;
9208;SDS011;4639;48.862;9.188;2022-08-05T01:32:31;4.95;;;2.58;;
9208;SDS011;4639;48.862;9.188;2022-08-05T01:34:59;3.17;;;2.53;;
9208;SDS011;4639;48.862;9.188;2022-08-05T01:37:43;6.60;;;2.40;;
9208;SDS011;4639;48.862;9.188;2022-08-05T01:40:12;5.30;;;2.38;;
9208;SDS011;4639;48.862;9.188;2022-08-05T01:42:40;3.85;;;2.88;;
9208;SDS011;4639;48.862;9.188;2022-08-05T01:45:08;11.90;;;2.47;;
9208;SDS011;4639;48.862;9.188;2022-08-05T01:47:35;9.90;;;2.65;;
9208;SDS011;4639;48.862;9.188;2022-08-05T01:50:03;8.93;;;2.50;;
9208;SDS011;4639;48.862;9.188;2022-08-05T01:52:31;7.30;;;2.63;;
9208;SDS011;4639;48.862;9.188;2022-08-05T01:55:01;5.30;;;2.50;;
9208;SDS011;4639;48.862;9.188;2022-08-05T01:57:31;9.07;;;2.38;;
9208;SDS011;4639;48.862;9.188;2022-08-05T02:00:01;5.57;;;2.63;;
9208;SDS011;4639;48.862;9.188;2022-08-05T02:02:28;21.27;;;2.97;;
9208;SDS011;4639;48.862;9.188;2022-08-05T02:05:00;8.27;;;2.40;;
9208;SDS011;4639;48.862;9.188;2022-08-05T02:07:29;12.13;;;2.58;;
9208;SDS011;4639;48.862;9.188;2022-08-05T02:09:57;10.27;;;2.95;;
9208;SDS011;4639;48.862;9.188;2022-08-05T02:17:37;16.38;;;2.65;;
9208;SDS011;4639;48.862;9.188;2022-08-05T02:20:25;7.63;;;2.33;;
9208;SDS011;4639;48.862;9.188;2022-08-05T02:22:58;7.38;;;2.75;;
9208;SDS011;4639;48.862;9.188;2022-08-05T02:25:27;6.85;;;2.55;;
9208;SDS011;4639;48.862;9.188;2022-08-05T02:27:56;9.95;;;2.90;;
9208;SDS011;4639;48.862;9.188;2022-08-05T02:30:24;11.20;;;3.13;;
9208;SDS011;4639;48.862;9.188;2022-08-05T02:32:53;7.15;;;2.60;;
9208;SDS011;4639;48.862;9.188;2022-08-05T02:35:22;5.82;;;2.92;;
9208;SDS011;4639;48.862;9.188;2022-08-05T02:37:49;9.48;;;2.75;;
9208;SDS011;4639;48.862;9.188;2022-08-05T02:40:17;8.80;;;2.67;;
9208;SDS011;4639;48.862;9.188;2022-08-05T02:42:44;10.65;;;2.70;;
9208;SDS011;4639;48.862;9.188;2022-08-05T02:45:11;8.18;;;2.75;;
9208;SDS011;4639;48.862;9.188;2022-08-05T02:47:38;7.90;;;2.60;;
9208;SDS011;4639;48.862;9.188;2022-08-05T02:50:05;12.98;;;2.97;;
9208;SDS011;4639;48.862;9.188;2022-08-05T02:52:32;3.95;;;2.22;;
9208;SDS011;4639;48.862;9.188;2022-08-05T02:55:00;8.95;;;2.72;;
9208;SDS011;4639;48.862;9.188;2022-08-05T02:57:26;14.32;;;3.08;;
9208;SDS011;4639;48.862;9.188;2022-08-05T02:59:53;5.70;;;2.75;;
9208;SDS011;4639;48.862;9.188;2022-08-05T03:02:19;10.52;;;3.03;;
9208;SDS011;4639;48.862;9.188;2022-08-05T03:04:50;10.80;;;3.00;;
9208;SDS011;4639;48.862;9.188;2022-08-05T03:07:18;7.55;;;2.92;;
9208;SDS011;4639;48.862;9.188;2022-08-05T03:09:45;9.75;;;2.67;;
9208;SDS011;4639;48.862;9.188;2022-08-05T03:12:54;12.30;;;3.00;;
9208;SDS011;4639;48.862;9.188;2022-08-05T03:15:02;8.35;;;2.92;;
9208;SDS011;4639;48.862;9.188;2022-08-05T03:17:29;12.00;;;3.20;;
9208;SDS011;4639;48.862;9.188;2022-08-05T03:19:54;12.80;;;3.05;;
9208;SDS011;4639;48.862;9.188;2022-08-05T03:22:20;5.10;;;2.67;;
9208;SDS011;4639;48.862;9.188;2022-08-05T03:24:46;13.48;;;3.30;;
9208;SDS011;4639;48.862;9.188;2022-08-05T03:27:13;11.23;;;3.13;;
9208;SDS011;4639;48.862;9.188;2022-08-05T03:29:40;14.60;;;3.17;;
9208;SDS011;4639;48.862;9.188;2022-08-05T03:32:08;8.85;;;3.03;;
9208;SDS011;4639;48.862;9.188;2022-08-05T03:34:35;11.25;;;3.22;;
9208;SDS011;4639;48.862;9.188;2022-08-05T03:37:02;8.05;;;3.17;;
9208;SDS011;4639;48.862;9.188;2022-08-05T03:39:28;11.77;;;3.20;;
9208;SDS011;4639;48.862;9.188;2022-08-05T03:41:54;7.28;;;2.88;;
9208;SDS011;4639;48.862;9.188;2022-08-05T03:44:20;6.03;;;3.05;;
9208;SDS011;4639;48.862;9.188;2022-08-05T03:46:46;7.68;;;3.13;;
9208;SDS011;4639;48.862;9.188;2022-08-05T03:49:12;5.70;;;3.22;;
9208;SDS011;4639;48.862;9.188;2022-08-05T03:51:38;10.27;;;3.25;;
9208;SDS011;4639;48.862;9.188;2022-08-05T03:54:16;9.02;;;3.05;;
9208;SDS011;4639;48.862;9.188;2022-08-05T03:56:47;9.82;;;3.20;;
9208;SDS011;4639;48.862;9.188;2022-08-05T03:59:18;6.47;;;3.17;;
9208;SDS011;4639;48.862;9.188;2022-08-05T04:01:50;7.07;;;3.20;;
9208;SDS011;4639;48.862;9.188;2022-08-05T04:04:18;9.55;;;3.35;;
9208;SDS011;4639;48.862;9.188;2022-08-05T04:06:45;11.80;;;3.08;;
9208;SDS011;4639;48.862;9.188;2022-08-05T04:09:11;13.82;;;3.10;;
9208;SDS011;4639;48.862;9.188;2022-08-05T04:11:39;9.23;;;3.22;;
9208;SDS011;4639;48.862;9.188;2022-08-05T04:14:05;7.03;;;3.28;;
9208;SDS011;4639;48.862;9.188;2022-08-05T04:16:31;14.00;;;3.83;;
9208;SDS011;4639;48.862;9.188;2022-08-05T04:18:59;10.02;;;3.15;;
9208;SDS011;4639;48.862;9.188;2022-08-05T04:21:25;4.55;;;2.75;;
9208;SDS011;4639;48.862;9.188;2022-08-05T04:23:51;6.53;;;2.97;;
9208;SDS011;4639;48.862;9.188;2022-08-05T04:26:17;9.50;;;3.28;;
9208;SDS011;4639;48.862;9.188;2022-08-05T04:28:42;11.07;;;3.70;;
9208;SDS011;4639;48.862;9.188;2022-08-05T04:31:08;8.50;;;3.60;;
9208;SDS011;4639;48.862;9.188;2022-08-05T04:33:34;12.40;;;3.58;;
9208;SDS011;4639;48.862;9.188;2022-08-05T04:35:59;15.65;;;4.20;;
9208;SDS011;4639;48.862;9.188;2022-08-05T04:38:25;8.30;;;3.35;;
9208;SDS011;4639;48.862;9.188;2022-08-05T04:40:50;5.10;;;3.33;;
9208;SDS011;4639;48.862;9.188;2022-08-05T04:43:16;13.00;;;3.17;;
9208;SDS011;4639;48.862;9.188;2022-08-05T04:45:42;8.35;;;3.20;;
9208;SDS011;4639;48.862;9.188;2022-08-05T04:48:11;7.45;;;3.47;;
9208;SDS011;4639;48.862;9.188;2022-08-05T04:50:42;14.07;;;3.40;;
9208;SDS011;4639;48.862;9.188;2022-08-05T04:53:10;9.13;;;3.63;;
9208;SDS011;4639;48.862;9.188;2022-08-05T04:55:36;9.90;;;3.55;;
9208;SDS011;4639;48.862;9.188;2022-08-05T04:58:03;11.50;;;3.45;;
9208;SDS011;4639;48.862;9.188;2022-08-05T05:00:30;6.53;;;3.08;;
9208;SDS011;4639;48.862;9.188;2022-08-05T05:03:00;11.60;;;3.00;;
9208;SDS011;4639;48.862;9.188;2022-08-05T05:05:26;9.65;;;3.72;;
9208;SDS011;4639;48.862;9.188;2022-08-05T05:07:52;11.55;;;3.83;;
9208;SDS011;4639;48.862;9.188;2022-08-05T05:10:41;14.57;;;3.67;;
9208;SDS011;4639;48.862;9.188;2022-08-05T05:13:09;8.82;;;3.47;;
9208;SDS011;4639;48.862;9.188;2022-08-05T05:15:42;13.77;;;4.32;;
9208;SDS011;4639;48.862;9.188;2022-08-05T05:18:13;12.27;;;4.18;;
9208;SDS011;4639;48.862;9.188;2022-08-05T05:20:43;10.50;;;3.70;;
9208;SDS011;4639;48.862;9.188;2022-08-05T05:23:10;11.75;;;3.90;;
9208;SDS011;4639;48.862;9.188;2022-08-05T05:25:37;10.68;;;3.75;;
9208;SDS011;4639;48.862;9.188;2022-08-05T05:28:05;9.70;;;4.75;;
9208;SDS011;4639;48.862;9.188;2022-08-05T05:30:31;9.02;;;4.22;;
9208;SDS011;4639;48.862;9.188;2022-08-05T05:32:57;10.63;;;3.65;;
9208;SDS011;4639;48.862;9.188;2022-08-05T05:35:23;13.38;;;3.80;;
9208;SDS011;4639;48.862;9.188;2022-08-05T05:37:50;20.75;;;4.22;;
9208;SDS011;4639;48.862;9.188;2022-08-05T05:40:17;16.05;;;4.53;;
9208;SDS011;4639;48.862;9.188;2022-08-05T05:42:45;8.27;;;4.00;;
9208;SDS011;4639;48.862;9.188;2022-08-05T05:45:11;11.27;;;3.75;;
9208;SDS011;4639;48.862;9.188;2022-08-05T05:47:37;9.32;;;3.83;;
9208;SDS011;4639;48.862;9.188;2022-08-05T05:50:03;12.38;;;3.92;;
9208;SDS011;4639;48.862;9.188;2022-08-05T05:52:30;7.43;;;3.72;;
9208;SDS011;4639;48.862;9.188;2022-08-05T05:54:59;12.77;;;4.90;;
9208;SDS011;4639;48.862;9.188;2022-08-05T05:57:28;10.65;;;3.45;;
9208;SDS011;4639;48.862;9.188;2022-08-05T05:59:54;14.25;;;3.78;;
9208;SDS011;4639;48.862;9.188;2022-08-05T06:02:19;7.47;;;3.53;;
9208;SDS011;4639;48.862;9.188;2022-08-05T06:04:45;8.32;;;3.65;;
9208;SDS011;4639;48.862;9.188;2022-08-05T06:07:11;5.93;;;3.55;;
9208;SDS011;4639;48.862;9.188;2022-08-05T06:09:36;4.38;;;3.28;;
9208;SDS011;4639;48.862;9.188;2022-08-05T06:12:02;7.72;;;3.28;;
9208;SDS011;4639;48.862;9.188;2022-08-05T06:14:31;6.90;;;3.40;;
9208;SDS011;4639;48.862;9.188;2022-08-05T06:16:58;10.65;;;3.30;;
9208;SDS011;4639;48.862;9.188;2022-08-05T06:19:24;6.97;;;3.20;;
9208;SDS011;4639;48.862;9.188;2022-08-05T06:21:52;6.80;;;3.20;;
9208;SDS011;4639;48.862;9.188;2022-08-05T06:24:18;3.53;;;3.20;;
9208;SDS011;4639;48.862;9.188;2022-08-05T06:26:44;5.53;;;3.20;;
9208;SDS011;4639;48.862;9.188;2022-08-05T06:29:10;11.68;;;3.42;;
9208;SDS011;4639;48.862;9.188;2022-08-05T06:31:36;10.23;;;3.30;;
9208;SDS011;4639;48.862;9.188;2022-08-05T06:34:02;8.95;;;3.80;;
9208;SDS011;4639;48.862;9.188;2022-08-05T06:36:29;9.02;;;3.55;;
9208;SDS011;4639;48.862;9.188;2022-08-05T06:38:54;12.02;;;4.40;;
9208;SDS011;4639;48.862;9.188;2022-08-05T06:41:20;6.05;;;3.13;;
9208;SDS011;4639;48.862;9.188;2022-08-05T06:43:46;4.20;;;2.80;;
9208;SDS011;4639;48.862;9.188;2022-08-05T06:46:12;5.72;;;3.35;;
9208;SDS011;4639;48.862;9.188;2022-08-05T06:48:38;8.30;;;3.38;;
9208;SDS011;4639;48.862;9.188;2022-08-05T06:51:04;6.28;;;3.55;;
9208;SDS011;4639;48.862;9.188;2022-08-05T06:53:30;9.93;;;2.90;;
9208;SDS011;4639;48.862;9.188;2022-08-05T06:55:56;3.63;;;2.70;;
9208;SDS011;4639;48.862;9.188;2022-08-05T06:58:23;4.80;;;2.88;;
9208;SDS011;4639;48.862;9.188;2022-08-05T07:00:48;8.18;;;3.35;;
9208;SDS011;4639;48.862;9.188;2022-08-05T07:03:14;3.30;;;2.97;;
9208;SDS011;4639;48.862;9.188;2022-08-05T07:05:40;7.40;;;3.10;;
9208;SDS011;4639;48.862;9.188;2022-08-05T07:08:05;6.40;;;3.15;;
9208;SDS011;4639;48.862;9.188;2022-08-05T07:10:31;3.88;;;3.10;;
9208;SDS011;4639;48.862;9.188;2022-08-05T07:12:57;5.40;;;2.70;;
9208;SDS011;4639;48.862;9.188;2022-08-05T07:15:41;7.07;;;3.00;;
9208;SDS011;4639;48.862;9.188;2022-08-05T07:18:25;7.55;;;3.05;;
9208;SDS011;4639;48.862;9.188;2022-08-05T07:20:51;3.70;;;2.83;;
9208;SDS011;4639;48.862;9.188;2022-08-05T07:23:16;4.47;;;2.65;;
9208;SDS011;4639;48.862;9.188;2022-08-05T07:25:42;5.13;;;2.70;;
9208;SDS011;4639;48.862;9.188;2022-08-05T07:28:08;6.03;;;2.70;;
9208;SDS011;4639;48.862;9.188;2022-08-05T07:30:34;5.72;;;2.38;;
9208;SDS011;4639;48.862;9.188;2022-08-05T07:33:04;2.75;;;2.42;;
9208;SDS011;4639;48.862;9.188;2022-08-05T07:35:31;6.22;;;2.60;;
9208;SDS011;4639;48.862;9.188;2022-08-05T07:37:57;4.97;;;2.55;;
9208;SDS011;4639;48.862;9.188;2022-08-05T07:40:22;4.28;;;2.80;;
9208;SDS011;4639;48.862;9.188;2022-08-05T07:42:48;3.90;;;2.30;;
9208;SDS011;4639;48.862;9.188;2022-08-05T07:45:14;4.28;;;2.58;;
9208;SDS011;4639;48.862;9.188;2022-08-05T07:47:40;6.55;;;2.53;;
9208;SDS011;4639;48.862;9.188;2022-08-05T07:50:06;5.85;;;2.40;;
9208;SDS011;4639;48.862;9.188;2022-08-05T07:52:37;3.05;;;2.60;;
9208;SDS011;4639;48.862;9.188;2022-08-05T07:55:03;3.97;;;2.35;;
9208;SDS011;4639;48.862;9.188;2022-08-05T07:57:30;5.03;;;2.30;;
9208;SDS011;4639;48.862;9.188;2022-08-05T07:59:55;2.88;;;2.00;;
9208;SDS011;4639;48.862;9.188;2022-08-05T08:02:25;3.20;;;1.85;;
9208;SDS011;4639;48.862;9.188;2022-08-05T08:04:51;2.25;;;1.73;;
9208;SDS011;4639;48.862;9.188;2022-08-05T08:07:17;2.65;;;1.80;;
9208;SDS011;4639;48.862;9.188;2022-08-05T08:09:44;2.25;;;1.65;;
9208;SDS011;4639;48.862;9.188;2022-08-05T08:12:10;2.90;;;2.00;;
9208;SDS011;4639;48.862;9.188;2022-08-05T08:14:39;2.13;;;1.80;;
9208;SDS011;4639;48.862;9.188;2022-08-05T08:17:06;2.28;;;1.70;;
9208;SDS011;4639;48.862;9.188;2022-08-05T08:19:35;2.22;;;1.70;;
9208;SDS011;4639;48.862;9.188;2022-08-05T08:22:01;2.35;;;2.00;;
9208;SDS011;4639;48.862;9.188;2022-08-05T08:24:27;2.47;;;1.70;;
9208;SDS011;4639;48.862;9.188;2022-08-05T08:26:53;3.15;;;2.10;;
9208;SDS011;4639;48.862;9.188;2022-08-05T08:29:19;2.10;;;1.88;;
9208;SDS011;4639;48.862;9.188;2022-08-05T08:31:44;2.75;;;2.00;;
9208;SDS011;4639;48.862;9.188;2022-08-05T08:34:11;3.58;;;1.83;;
9208;SDS011;4639;48.862;9.188;2022-08-05T08:36:37;2.00;;;1.83;;
9208;SDS011;4639;48.862;9.188;2022-08-05T08:39:02;2.78;;;2.00;;
9208;SDS011;4639;48.862;9.188;2022-08-05T08:41:28;2.83;;;1.80;;
9208;SDS011;4639;48.862;9.188;2022-08-05T08:43:57;3.85;;;1.88;;
9208;SDS011;4639;48.862;9.188;2022-08-05T08:46:26;3.28;;;1.92;;
9208;SDS011;4639;48.862;9.188;2022-08-05T08:48:54;1.90;;;1.58;;
9208;SDS011;4639;48.862;9.188;2022-08-05T08:51:20;2.92;;;1.80;;
9208;SDS011;4639;48.862;9.188;2022-08-05T08:53:48;1.98;;;1.88;;
9208;SDS011;4639;48.862;9.188;2022-08-05T08:56:14;3.38;;;1.85;;
9208;SDS011;4639;48.862;9.188;2022-08-05T08:58:41;3.60;;;1.80;;
9208;SDS011;4639;48.862;9.188;2022-08-05T09:01:06;2.25;;;1.70;;
9208;SDS011;4639;48.862;9.188;2022-08-05T09:03:34;4.03;;;1.95;;
9208;SDS011;4639;48.862;9.188;2022-08-05T09:06:00;1.65;;;1.48;;
9208;SDS011;4639;48.862;9.188;2022-08-05T09:08:26;4.57;;;1.80;;
9208;SDS011;4639;48.862;9.188;2022-08-05T09:10:51;3.67;;;2.05;;
9208;SDS011;4639;48.862;9.188;2022-08-05T09:13:17;4.43;;;2.30;;
9208;SDS011;4639;48.862;9.188;2022-08-05T09:15:44;3.30;;;1.90;;
9208;SDS011;4639;48.862;9.188;2022-08-05T09:18:10;3.25;;;1.77;;
9208;SDS011;4639;48.862;9.188;2022-08-05T09:20:36;3.33;;;1.77;;
9208;SDS011;4639;48.862;9.188;2022-08-05T09:23:03;5.03;;;1.77;;
9208;SDS011;4639;48.862;9.188;2022-08-05T09:25:32;2.80;;;1.88;;
9208;SDS011;4639;48.862;9.188;2022-08-05T09:28:07;4.65;;;1.98;;
9208;SDS011;4639;48.862;9.188;2022-08-05T09:30:40;2.33;;;1.83;;
9208;SDS011;4639;48.862;9.188;2022-08-05T09:33:07;7.00;;;1.85;;
9208;SDS011;4639;48.862;9.188;2022-08-05T09:35:32;2.55;;;1.60;;
9208;SDS011;4639;48.862;9.188;2022-08-05T09:37:58;2.67;;;1.80;;
9208;SDS011;4639;48.862;9.188;2022-08-05T09:40:31;1.75;;;1.65;;
9208;SDS011;4639;48.862;9.188;2022-08-05T09:42:59;2.15;;;1.75;;
9208;SDS011;4639;48.862;9.188;2022-08-05T09:45:40;4.35;;;2.00;;
9208;SDS011;4639;48.862;9.188;2022-08-05T09:48:19;4.00;;;1.90;;
9208;SDS011;4639;48.862;9.188;2022-08-05T09:50:50;3.63;;;1.60;;
9208;SDS011;4639;48.862;9.188;2022-08-05T09:53:21;3.85;;;1.98;;
9208;SDS011;4639;48.862;9.188;2022-08-05T09:55:51;3.17;;;1.92;;
9208;SDS011;4639;48.862;9.188;2022-08-05T09:58:18;2.78;;;1.90;;
9208;SDS011;4639;48.862;9.188;2022-08-05T10:00:54;2.40;;;1.77;;
9208;SDS011;4639;48.862;9.188;2022-08-05T10:03:27;3.38;;;1.80;;
9208;SDS011;4639;48.862;9.188;2022-08-05T10:08:48;3.63;;;1.80;;
9208;SDS011;4639;48.862;9.188;2022-08-05T10:11:14;2.10;;;1.90;;
9208;SDS011;4639;48.862;9.188;2022-08-05T10:13:40;3.22;;;1.73;;
9208;SDS011;4639;48.862;9.188;2022-08-05T10:16:26;2.83;;;1.60;;
9208;SDS011;4639;48.862;9.188;2022-08-05T10:18:55;6.50;;;1.90;;
9208;SDS011;4639;48.862;9.188;2022-08-05T10:21:21;4.70;;;1.83;;
9208;SDS011;4639;48.862;9.188;2022-08-05T10:23:46;3.13;;;1.55;;
9208;SDS011;4639;48.862;9.188;2022-08-05T10:26:12;3.67;;;1.40;;
9208;SDS011;4639;48.862;9.188;2022-08-05T10:28:38;4.05;;;1.58;;
9208;SDS011;4639;48.862;9.188;2022-08-05T10:31:05;2.03;;;1.70;;
9208;SDS011;4639;48.862;9.188;2022-08-05T10:33:31;4.13;;;1.60;;
9208;SDS011;4639;48.862;9.188;2022-08-05T10:35:59;5.70;;;1.73;;
9208;SDS011;4639;48.862;9.188;2022-08-05T10:38:28;2.38;;;1.65;;
9208;SDS011;4639;48.862;9.188;2022-08-05T10:41:00;2.60;;;1.70;;
9208;SDS011;4639;48.862;9.188;2022-08-05T10:43:53;2.35;;;1.40;;
9208;SDS011;4639;48.862;9.188;2022-08-05T10:46:43;1.70;;;1.55;;
9208;SDS011;4639;48.862;9.188;2022-08-05T10:49:14;3.45;;;1.85;;
9208;SDS011;4639;48.862;9.188;2022-08-05T10:51:41;3.15;;;1.73;;
9208;SDS011;4639;48.862;9.188;2022-08-05T10:54:11;2.95;;;1.58;;
9208;SDS011;4639;48.862;9.188;2022-08-05T10:56:48;2.03;;;1.70;;
9208;SDS011;4639;48.862;9.188;2022-08-05T10:59:24;4.20;;;1.80;;
9208;SDS011;4639;48.862;9.188;2022-08-05T11:02:04;4.00;;;1.70;;
9208;SDS011;4639;48.862;9.188;2022-08-05T11:04:44;6.80;;;1.77;;
9208;SDS011;4639;48.862;9.188;2022-08-05T11:07:10;1.77;;;1.42;;
9208;SDS011;4639;48.862;9.188;2022-08-05T11:15:04;3.47;;;1.77;;
9208;SDS011;4639;48.862;9.188;2022-08-05T11:17:42;6.03;;;1.95;;
9208;SDS011;4639;48.862;9.188;2022-08-05T11:26:07;4.38;;;1.80;;
9208;SDS011;4639;48.862;9.188;2022-08-05T11:28:49;4.15;;;1.73;;
9208;SDS011;4639;48.862;9.188;2022-08-05T11:36:10;1.83;;;1.50;;
9208;SDS011;4639;48.862;9.188;2022-08-05T11:41:03;3.78;;;1.63;;
9208;SDS011;4639;48.862;9.188;2022-08-05T11:43:30;3.05;;;1.60;;
9208;SDS011;4639;48.862;9.188;2022-08-05T11:45:57;1.80;;;1.70;;
9208;SDS011;4639;48.862;9.188;2022-08-05T11:48:23;5.82;;;1.77;;
9208;SDS011;4639;48.862;9.188;2022-08-05T11:50:50;6.18;;;1.80;;
9208;SDS011;4639;48.862;9.188;2022-08-05T11:53:17;3.90;;;1.70;;
9208;SDS011;4639;48.862;9.188;2022-08-05T11:55:56;3.75;;;1.70;;
9208;SDS011;4639;48.862;9.188;2022-08-05T11:58:36;3.45;;;1.83;;
9208;SDS011;4639;48.862;9.188;2022-08-05T12:01:07;2.25;;;1.75;;
9208;SDS011;4639;48.862;9.188;2022-08-05T12:03:42;5.00;;;1.50;;
9208;SDS011;4639;48.862;9.188;2022-08-05T12:06:14;4.25;;;1.90;;
9208;SDS011;4639;48.862;9.188;2022-08-05T12:11:09;5.30;;;1.92;;
9208;SDS011;4639;48.862;9.188;2022-08-05T12:13:40;4.20;;;1.75;;
9208;SDS011;4639;48.862;9.188;2022-08-05T12:16:18;2.15;;;1.55;;
9208;SDS011;4639;48.862;9.188;2022-08-05T12:18:44;1.63;;;1.52;;
9208;SDS011;4639;48.862;9.188;2022-08-05T12:21:14;2.45;;;1.70;;
9208;SDS011;4639;48.862;9.188;2022-08-05T12:26:36;3.63;;;1.50;;
9208;SDS011;4639;48.862;9.188;2022-08-05T12:29:05;1.58;;;1.48;;
9208;SDS011;4639;48.862;9.188;2022-08-05T12:31:35;4.97;;;1.73;;
9208;SDS011;4639;48.862;9.188;2022-08-05T12:34:01;3.42;;;1.65;;
9208;SDS011;4639;48.862;9.188;2022-08-05T12:36:29;3.55;;;1.60;;
9208;SDS011;4639;48.862;9.188;2022-08-05T12:38:56;1.85;;;1.70;;
9208;SDS011;4639;48.862;9.188;2022-08-05T12:41:23;3.00;;;1.73;;
9208;SDS011;4639;48.862;9.188;2022-08-05T12:43:56;2.25;;;1.52;;
9208;SDS011;4639;48.862;9.188;2022-08-05T12:46:23;3.25;;;1.60;;
9208;SDS011;4639;48.862;9.188;2022-08-05T12:49:00;5.47;;;2.10;;
9208;SDS011;4639;48.862;9.188;2022-08-05T12:51:29;3.92;;;1.65;;
9208;SDS011;4639;48.862;9.188;2022-08-05T12:54:03;2.42;;;1.40;;
9208;SDS011;4639;48.862;9.188;2022-08-05T12:56:29;5.70;;;1.70;;
9208;SDS011;4639;48.862;9.188;2022-08-05T13:01:43;2.40;;;1.55;;
9208;SDS011;4639;48.862;9.188;2022-08-05T13:04:37;2.03;;;1.70;;
9208;SDS011;4639;48.862;9.188;2022-08-05T13:07:16;3.67;;;1.80;;
9208;SDS011;4639;48.862;9.188;2022-08-05T13:09:49;4.68;;;1.77;;
9208;SDS011;4639;48.862;9.188;2022-08-05T13:12:25;3.75;;;1.48;;
9208;SDS011;4639;48.862;9.188;2022-08-05T13:14:55;1.70;;;1.60;;
9208;SDS011;4639;48.862;9.188;2022-08-05T13:17:24;3.45;;;1.90;;
9208;SDS011;4639;48.862;9.188;2022-08-05T13:22:27;3.08;;;1.70;;
9208;SDS011;4639;48.862;9.188;2022-08-05T13:24:52;5.00;;;1.92;;
9208;SDS011;4639;48.862;9.188;2022-08-05T13:27:32;3.47;;;1.67;;
9208;SDS011;4639;48.862;9.188;2022-08-05T13:30:00;4.00;;;1.75;;
9208;SDS011;4639;48.862;9.188;2022-08-05T13:32:26;4.75;;;2.00;;
9208;SDS011;4639;48.862;9.188;2022-08-05T13:34:52;3.92;;;1.60;;
9208;SDS011;4639;48.862;9.188;2022-08-05T13:37:18;4.22;;;1.80;;
9208;SDS011;4639;48.862;9.188;2022-08-05T13:39:45;4.40;;;1.80;;
9208;SDS011;4639;48.862;9.188;2022-08-05T13:42:11;4.40;;;1.80;;
9208;SDS011;4639;48.862;9.188;2022-08-05T13:44:37;3.85;;;1.60;;
9208;SDS011;4639;48.862;9.188;2022-08-05T13:47:02;1.58;;;1.38;;
9208;SDS011;4639;48.862;9.188;2022-08-05T13:49:28;3.00;;;1.65;;
9208;SDS011;4639;48.862;9.188;2022-08-05T13:51:54;3.83;;;1.92;;
9208;SDS011;4639;48.862;9.188;2022-08-05T13:54:19;3.85;;;1.80;;
9208;SDS011;4639;48.862;9.188;2022-08-05T13:56:45;7.18;;;1.90;;
9208;SDS011;4639;48.862;9.188;2022-08-05T13:59:11;1.58;;;1.48;;
9208;SDS011;4639;48.862;9.188;2022-08-05T14:01:37;2.85;;;1.88;;
9208;SDS011;4639;48.862;9.188;2022-08-05T14:04:03;2.30;;;1.75;;
9208;SDS011;4639;48.862;9.188;2022-08-05T14:06:47;2.08;;;1.70;;
9208;SDS011;4639;48.862;9.188;2022-08-05T14:09:13;5.53;;;1.90;;
9208;SDS011;4639;48.862;9.188;2022-08-05T14:11:38;5.22;;;1.75;;
9208;SDS011;4639;48.862;9.188;2022-08-05T14:14:05;2.17;;;1.88;;
9208;SDS011;4639;48.862;9.188;2022-08-05T14:16:32;2.35;;;1.90;;
9208;SDS011;4639;48.862;9.188;2022-08-05T14:18:58;5.28;;;2.17;;
9208;SDS011;4639;48.862;9.188;2022-08-05T14:21:24;5.75;;;1.88;;
9208;SDS011;4639;48.862;9.188;2022-08-05T14:23:50;1.92;;;1.80;;
9208;SDS011;4639;48.862;9.188;2022-08-05T14:26:15;4.45;;;1.75;;
9208;SDS011;4639;48.862;9.188;2022-08-05T14:28:41;4.15;;;2.00;;
9208;SDS011;4639;48.862;9.188;2022-08-05T14:31:07;2.33;;;1.60;;
9208;SDS011;4639;48.862;9.188;2022-08-05T14:33:33;3.28;;;1.80;;
9208;SDS011;4639;48.862;9.188;2022-08-05T14:35:59;5.40;;;2.03;;
9208;SDS011;4639;48.862;9.188;2022-08-05T14:38:25;4.60;;;2.20;;
9208;SDS011;4639;48.862;9.188;2022-08-05T14:40:51;3.50;;;1.98;;
9208;SDS011;4639;48.862;9.188;2022-08-05T14:43:17;3.97;;;1.98;;
9208;SDS011;4639;48.862;9.188;2022-08-05T14:45:43;3.38;;;2.30;;
9208;SDS011;4639;48.862;9.188;2022-08-05T14:48:08;4.88;;;2.33;;
9208;SDS011;4639;48.862;9.188;2022-08-05T14:50:34;9.35;;;2.38;;
9208;SDS011;4639;48.862;9.188;2022-08-05T14:52:59;3.65;;;2.00;;
9208;SDS011;4639;48.862;9.188;2022-08-05T14:55:25;7.93;;;2.25;;
9208;SDS011;4639;48.862;9.188;2022-08-05T14:57:51;2.78;;;1.90;;
9208;SDS011;4639;48.862;9.188;2022-08-05T15:00:20;3.10;;;2.03;;
9208;SDS011;4639;48.862;9.188;2022-08-05T15:02:46;7.18;;;2.10;;
9208;SDS011;4639;48.862;9.188;2022-08-05T15:05:12;7.03;;;2.20;;
9208;SDS011;4639;48.862;9.188;2022-08-05T15:07:38;3.60;;;2.33;;
9208;SDS011;4639;48.862;9.188;2022-08-05T15:10:04;7.95;;;2.78;;
9208;SDS011;4639;48.862;9.188;2022-08-05T15:12:30;3.28;;;2.30;;
9208;SDS011;4639;48.862;9.188;2022-08-05T15:14:57;6.35;;;2.60;;
9208;SDS011;4639;48.862;9.188;2022-08-05T15:17:23;3.50;;;2.25;;
9208;SDS011;4639;48.862;9.188;2022-08-05T15:19:49;5.72;;;2.47;;
9208;SDS011;4639;48.862;9.188;2022-08-05T15:22:15;3.35;;;2.50;;
9208;SDS011;4639;48.862;9.188;2022-08-05T15:24:41;4.57;;;2.30;;
9208;SDS011;4639;48.862;9.188;2022-08-05T15:27:08;4.35;;;2.42;;
9208;SDS011;4639;48.862;9.188;2022-08-05T15:29:33;6.82;;;2.53;;
9208;SDS011;4639;48.862;9.188;2022-08-05T15:32:01;5.35;;;2.33;;
9208;SDS011;4639;48.862;9.188;2022-08-05T15:34:27;6.88;;;2.30;;
9208;SDS011;4639;48.862;9.188;2022-08-05T15:37:00;3.47;;;2.47;;
9208;SDS011;4639;48.862;9.188;2022-08-05T15:39:26;4.05;;;2.42;;
9208;SDS011;4639;48.862;9.188;2022-08-05T15:41:51;4.05;;;2.35;;
9208;SDS011;4639;48.862;9.188;2022-08-05T15:44:17;2.15;;;1.92;;
9208;SDS011;4639;48.862;9.188;2022-08-05T15:46:42;4.55;;;2.40;;
9208;SDS011;4639;48.862;9.188;2022-08-05T15:49:14;4.47;;;2.30;;
9208;SDS011;4639;48.862;9.188;2022-08-05T15:51:40;3.33;;;2.22;;
9208;SDS011;4639;48.862;9.188;2022-08-05T15:54:05;5.97;;;2.38;;
9208;SDS011;4639;48.862;9.188;2022-08-05T15:56:31;4.40;;;2.38;;
9208;SDS011;4639;48.862;9.188;2022-08-05T15:58:57;3.35;;;2.28;;
9208;SDS011;4639;48.862;9.188;2022-08-05T16:01:22;2.85;;;2.47;;
9208;SDS011;4639;48.862;9.188;2022-08-05T16:03:50;2.80;;;2.08;;
9208;SDS011;4639;48.862;9.188;2022-08-05T16:06:16;5.18;;;2.45;;
9208;SDS011;4639;48.862;9.188;2022-08-05T16:08:42;2.78;;;2.20;;